sensor_id;sensor_type;location;lat;lon;timestamp;temperature;humidity
37594;DHT22;23441;50.856;6.076;2022-09-09T00:01:26;14.10;99.90
37594;DHT22;23441;50.856;6.076;2022-09-09T00:03:44;14.00;99.90
37594;DHT22;23441;50.856;6.076;2022-09-09T00:06:18;13.90;99.90
37594;DHT22;23441;50.856;6.076;2022-09-09T00:12:17;13.90;99.90
37594;DHT22;23441;50.856;6.076;2022-09-09T00:14:55;13.90;99.90
37594;DHT22;23441;50.856;6.076;2022-09-09T00:20:23;13.90;99.90
37594;DHT22;23441;50.856;6.076;2022-09-09T00:23:30;13.90;99.90
37594;DHT22;23441;50.856;6.076;2022-09-09T00:31:38;13.90;99.90
37594;DHT22;23441;50.856;6.076;2022-09-09T00:34:15;14.00;99.90
37594;DHT22;23441;50.856;6.076;2022-09-09T00:36:45;13.90;99.90
37594;DHT22;23441;50.856;6.076;2022-09-09T00:39:26;13.90;99.90
37594;DHT22;23441;50.856;6.076;2022-09-09T00:44:58;14.00;99.90
37594;DHT22;23441;50.856;6.076;2022-09-09T00:56:05;14.10;99.90
37594;DHT22;23441;50.856;6.076;2022-09-09T00:58:37;14.10;99.90
37594;DHT22;23441;50.856;6.076;2022-09-09T01:01:11;14.10;99.90
37594;DHT22;23441;50.856;6.076;2022-09-09T01:06:20;14.10;99.90
37594;DHT22;23441;50.856;6.076;2022-09-09T01:14:48;14.20;99.90
37594;DHT22;23441;50.856;6.076;2022-09-09T01:17:21;14.20;99.90
37594;DHT22;23441;50.856;6.076;2022-09-09T01:19:54;14.20;99.90
37594;DHT22;23441;50.856;6.076;2022-09-09T01:28:22;14.10;99.90
37594;DHT22;23441;50.856;6.076;2022-09-09T01:30:51;14.10;99.90
37594;DHT22;23441;50.856;6.076;2022-09-09T01:33:18;14.20;99.90
37594;DHT22;23441;50.856;6.076;2022-09-09T01:38:30;14.20;99.90
37594;DHT22;23441;50.856;6.076;2022-09-09T01:40:57;14.30;99.90
37594;DHT22;23441;50.856;6.076;2022-09-09T01:43:25;14.20;99.90
37594;DHT22;23441;50.856;6.076;2022-09-09T01:45:54;14.20;99.90
37594;DHT22;23441;50.856;6.076;2022-09-09T01:48:22;14.20;99.90
37594;DHT22;23441;50.856;6.076;2022-09-09T01:50:49;14.20;99.90
37594;DHT22;23441;50.856;6.076;2022-09-09T01:53:17;14.30;99.90
37594;DHT22;23441;50.856;6.076;2022-09-09T01:59:24;14.40;99.90
37594;DHT22;23441;50.856;6.076;2022-09-09T02:04:54;14.50;99.90
37594;DHT22;23441;50.856;6.076;2022-09-09T02:07:40;14.50;99.90
37594;DHT22;23441;50.856;6.076;2022-09-09T02:10:19;14.50;99.90
37594;DHT22;23441;50.856;6.076;2022-09-09T02:12:51;14.60;99.90
37594;DHT22;23441;50.856;6.076;2022-09-09T02:15:32;14.60;99.90
37594;DHT22;23441;50.856;6.076;2022-09-09T02:18:04;14.60;99.90
37594;DHT22;23441;50.856;6.076;2022-09-09T02:20:34;14.60;99.90
37594;DHT22;23441;50.856;6.076;2022-09-09T02:23:04;14.60;99.90
37594;DHT22;23441;50.856;6.076;2022-09-09T02:25:33;14.60;99.90
37594;DHT22;23441;50.856;6.076;2022-09-09T02:28:03;14.60;99.90
37594;DHT22;23441;50.856;6.076;2022-09-09T02:30:33;14.60;99.90
37594;DHT22;23441;50.856;6.076;2022-09-09T02:33:02;14.60;99.90
37594;DHT22;23441;50.856;6.076;2022-09-09T02:35:30;14.60;99.90
37594;DHT22;23441;50.856;6.076;2022-09-09T02:38:01;14.50;99.90
37594;DHT22;23441;50.856;6.076;2022-09-09T02:40:30;14.60;99.90
37594;DHT22;23441;50.856;6.076;2022-09-09T02:42:56;14.50;99.90
37594;DHT22;23441;50.856;6.076;2022-09-09T02:45:27;14.60;99.90
37594;DHT22;23441;50.856;6.076;2022-09-09T02:48:05;14.60;99.90
37594;DHT22;23441;50.856;6.076;2022-09-09T02:53:55;14.60;99.90
37594;DHT22;23441;50.856;6.076;2022-09-09T02:56:30;14.60;99.90
37594;DHT22;23441;50.856;6.076;2022-09-09T02:58:59;14.70;99.90
37594;DHT22;23441;50.856;6.076;2022-09-09T03:01:25;14.60;99.90
37594;DHT22;23441;50.856;6.076;2022-09-09T03:03:51;14.60;99.90
37594;DHT22;23441;50.856;6.076;2022-09-09T03:06:17;14.60;99.90
37594;DHT22;23441;50.856;6.076;2022-09-09T03:08:42;14.50;99.90
37594;DHT22;23441;50.856;6.076;2022-09-09T03:11:09;14.50;99.90
37594;DHT22;23441;50.856;6.076;2022-09-09T03:13:35;14.60;99.90
37594;DHT22;23441;50.856;6.076;2022-09-09T03:16:01;14.60;99.90
37594;DHT22;23441;50.856;6.076;2022-09-09T03:18:27;14.60;99.90
37594;DHT22;23441;50.856;6.076;2022-09-09T03:20:53;14.60;99.90
37594;DHT22;23441;50.856;6.076;2022-09-09T03:23:19;14.60;99.90
37594;DHT22;23441;50.856;6.076;2022-09-09T03:25:48;14.60;99.90
37594;DHT22;23441;50.856;6.076;2022-09-09T03:28:14;14.60;99.90
37594;DHT22;23441;50.856;6.076;2022-09-09T03:30:40;14.50;99.90
37594;DHT22;23441;50.856;6.076;2022-09-09T03:33:06;14.60;99.90
37594;DHT22;23441;50.856;6.076;2022-09-09T03:35:32;14.60;99.90
37594;DHT22;23441;50.856;6.076;2022-09-09T03:37:58;14.60;99.90
37594;DHT22;23441;50.856;6.076;2022-09-09T03:40:26;14.50;99.90
37594;DHT22;23441;50.856;6.076;2022-09-09T03:42:52;14.50;99.90
37594;DHT22;23441;50.856;6.076;2022-09-09T03:45:18;14.50;99.90
37594;DHT22;23441;50.856;6.076;2022-09-09T03:47:44;14.50;99.90
37594;DHT22;23441;50.856;6.076;2022-09-09T03:50:10;14.50;99.90
37594;DHT22;23441;50.856;6.076;2022-09-09T03:52:40;14.50;99.90
37594;DHT22;23441;50.856;6.076;2022-09-09T03:55:08;14.40;99.90
37594;DHT22;23441;50.856;6.076;2022-09-09T03:57:35;14.40;99.90
37594;DHT22;23441;50.856;6.076;2022-09-09T04:00:06;14.40;99.90
37594;DHT22;23441;50.856;6.076;2022-09-09T04:02:33;14.50;99.90
37594;DHT22;23441;50.856;6.076;2022-09-09T04:04:58;14.40;99.90
37594;DHT22;23441;50.856;6.076;2022-09-09T04:07:25;14.50;99.90
37594;DHT22;23441;50.856;6.076;2022-09-09T04:09:52;14.60;99.90
37594;DHT22;23441;50.856;6.076;2022-09-09T04:12:20;14.60;99.90
37594;DHT22;23441;50.856;6.076;2022-09-09T04:14:46;14.60;99.90
37594;DHT22;23441;50.856;6.076;2022-09-09T04:17:12;14.70;99.90
37594;DHT22;23441;50.856;6.076;2022-09-09T04:19:38;14.80;99.90
37594;DHT22;23441;50.856;6.076;2022-09-09T04:22:04;14.90;99.90
37594;DHT22;23441;50.856;6.076;2022-09-09T04:24:30;14.90;99.90
37594;DHT22;23441;50.856;6.076;2022-09-09T04:26:56;14.90;99.90
37594;DHT22;23441;50.856;6.076;2022-09-09T04:29:21;14.90;99.90
37594;DHT22;23441;50.856;6.076;2022-09-09T04:31:47;14.80;99.90
37594;DHT22;23441;50.856;6.076;2022-09-09T04:34:13;14.80;99.90
37594;DHT22;23441;50.856;6.076;2022-09-09T04:36:39;14.80;99.90
37594;DHT22;23441;50.856;6.076;2022-09-09T04:39:06;14.90;99.90
37594;DHT22;23441;50.856;6.076;2022-09-09T04:41:32;14.90;99.90
37594;DHT22;23441;50.856;6.076;2022-09-09T04:43:58;14.80;99.90
37594;DHT22;23441;50.856;6.076;2022-09-09T04:46:25;14.80;99.90
37594;DHT22;23441;50.856;6.076;2022-09-09T04:48:51;14.90;99.90
37594;DHT22;23441;50.856;6.076;2022-09-09T04:51:18;14.80;99.90
37594;DHT22;23441;50.856;6.076;2022-09-09T04:53:44;14.80;99.90
37594;DHT22;23441;50.856;6.076;2022-09-09T04:56:14;14.80;99.90
37594;DHT22;23441;50.856;6.076;2022-09-09T04:58:41;14.80;99.90
37594;DHT22;23441;50.856;6.076;2022-09-09T05:01:14;14.70;99.90
37594;DHT22;23441;50.856;6.076;2022-09-09T05:03:43;14.70;99.90
37594;DHT22;23441;50.856;6.076;2022-09-09T05:06:12;14.70;99.90
37594;DHT22;23441;50.856;6.076;2022-09-09T05:08:41;14.70;99.90
37594;DHT22;23441;50.856;6.076;2022-09-09T05:11:22;14.70;99.90
37594;DHT22;23441;50.856;6.076;2022-09-09T05:13:50;14.70;99.90
37594;DHT22;23441;50.856;6.076;2022-09-09T05:16:18;14.60;99.90
37594;DHT22;23441;50.856;6.076;2022-09-09T05:18:45;14.70;99.90
37594;DHT22;23441;50.856;6.076;2022-09-09T05:21:13;14.70;99.90
37594;DHT22;23441;50.856;6.076;2022-09-09T05:23:40;14.70;99.90
37594;DHT22;23441;50.856;6.076;2022-09-09T05:26:11;14.60;99.90
37594;DHT22;23441;50.856;6.076;2022-09-09T05:28:39;14.60;99.90
37594;DHT22;23441;50.856;6.076;2022-09-09T05:31:07;14.60;99.90
37594;DHT22;23441;50.856;6.076;2022-09-09T05:33:35;14.60;99.90
37594;DHT22;23441;50.856;6.076;2022-09-09T05:36:07;14.60;99.90
37594;DHT22;23441;50.856;6.076;2022-09-09T05:38:34;14.60;99.90
37594;DHT22;23441;50.856;6.076;2022-09-09T05:41:02;14.60;99.90
37594;DHT22;23441;50.856;6.076;2022-09-09T05:43:29;14.70;99.90
37594;DHT22;23441;50.856;6.076;2022-09-09T05:46:02;14.70;99.90
37594;DHT22;23441;50.856;6.076;2022-09-09T05:48:36;14.70;99.90
37594;DHT22;23441;50.856;6.076;2022-09-09T05:51:05;14.70;99.90
37594;DHT22;23441;50.856;6.076;2022-09-09T05:53:32;14.80;99.90
37594;DHT22;23441;50.856;6.076;2022-09-09T05:56:07;14.80;99.90
37594;DHT22;23441;50.856;6.076;2022-09-09T05:58:37;14.80;99.90
37594;DHT22;23441;50.856;6.076;2022-09-09T06:01:04;14.70;99.90
37594;DHT22;23441;50.856;6.076;2022-09-09T06:03:36;14.70;99.90
37594;DHT22;23441;50.856;6.076;2022-09-09T06:06:05;14.70;99.90
37594;DHT22;23441;50.856;6.076;2022-09-09T06:08:34;14.70;99.90
37594;DHT22;23441;50.856;6.076;2022-09-09T06:11:04;14.70;99.90
37594;DHT22;23441;50.856;6.076;2022-09-09T06:13:38;14.70;99.90
37594;DHT22;23441;50.856;6.076;2022-09-09T06:16:13;14.60;99.90
37594;DHT22;23441;50.856;6.076;2022-09-09T06:18:40;14.60;99.90
37594;DHT22;23441;50.856;6.076;2022-09-09T06:21:11;14.60;99.90
37594;DHT22;23441;50.856;6.076;2022-09-09T06:23:53;14.70;99.90
37594;DHT22;23441;50.856;6.076;2022-09-09T06:26:23;14.70;99.90
37594;DHT22;23441;50.856;6.076;2022-09-09T06:28:53;14.80;99.90
37594;DHT22;23441;50.856;6.076;2022-09-09T06:31:22;14.90;99.90
37594;DHT22;23441;50.856;6.076;2022-09-09T06:33:51;15.10;99.90
37594;DHT22;23441;50.856;6.076;2022-09-09T06:36:29;15.30;99.90
37594;DHT22;23441;50.856;6.076;2022-09-09T06:39:00;16.10;99.90
37594;DHT22;23441;50.856;6.076;2022-09-09T06:41:28;16.50;99.90
37594;DHT22;23441;50.856;6.076;2022-09-09T06:43:55;16.60;99.90
37594;DHT22;23441;50.856;6.076;2022-09-09T06:46:27;16.50;99.90
37594;DHT22;23441;50.856;6.076;2022-09-09T06:48:55;16.40;99.90
37594;DHT22;23441;50.856;6.076;2022-09-09T06:51:25;16.40;99.90
37594;DHT22;23441;50.856;6.076;2022-09-09T06:53:54;16.50;99.90
37594;DHT22;23441;50.856;6.076;2022-09-09T06:58:56;16.60;99.90
37594;DHT22;23441;50.856;6.076;2022-09-09T07:01:25;16.60;99.90
37594;DHT22;23441;50.856;6.076;2022-09-09T07:03:54;16.60;99.90
37594;DHT22;23441;50.856;6.076;2022-09-09T07:06:23;16.50;99.90
37594;DHT22;23441;50.856;6.076;2022-09-09T07:08:56;16.60;99.90
37594;DHT22;23441;50.856;6.076;2022-09-09T07:11:28;16.50;99.90
37594;DHT22;23441;50.856;6.076;2022-09-09T07:13:57;16.50;99.90
37594;DHT22;23441;50.856;6.076;2022-09-09T07:16:24;16.50;99.90
37594;DHT22;23441;50.856;6.076;2022-09-09T07:18:51;16.40;99.90
37594;DHT22;23441;50.856;6.076;2022-09-09T07:21:19;16.50;99.90
37594;DHT22;23441;50.856;6.076;2022-09-09T07:23:46;16.50;99.90
37594;DHT22;23441;50.856;6.076;2022-09-09T07:26:15;16.60;99.90
37594;DHT22;23441;50.856;6.076;2022-09-09T07:28:45;16.70;99.90
37594;DHT22;23441;50.856;6.076;2022-09-09T07:31:24;16.80;99.90
37594;DHT22;23441;50.856;6.076;2022-09-09T07:33:52;16.80;99.90
37594;DHT22;23441;50.856;6.076;2022-09-09T07:36:27;16.80;99.90
37594;DHT22;23441;50.856;6.076;2022-09-09T07:38:56;16.90;99.90
37594;DHT22;23441;50.856;6.076;2022-09-09T07:44:04;16.90;99.90
37594;DHT22;23441;50.856;6.076;2022-09-09T07:46:32;17.00;99.90
37594;DHT22;23441;50.856;6.076;2022-09-09T07:48:58;17.00;99.90
37594;DHT22;23441;50.856;6.076;2022-09-09T07:51:35;17.10;99.90
37594;DHT22;23441;50.856;6.076;2022-09-09T07:54:05;17.10;99.90
37594;DHT22;23441;50.856;6.076;2022-09-09T07:56:33;17.10;99.90
37594;DHT22;23441;50.856;6.076;2022-09-09T07:58:59;17.00;99.90
37594;DHT22;23441;50.856;6.076;2022-09-09T08:01:29;17.10;99.90
37594;DHT22;23441;50.856;6.076;2022-09-09T08:04:17;17.30;99.90
37594;DHT22;23441;50.856;6.076;2022-09-09T08:06:46;17.20;99.90
37594;DHT22;23441;50.856;6.076;2022-09-09T08:09:19;17.40;99.90
37594;DHT22;23441;50.856;6.076;2022-09-09T08:11:46;17.50;99.90
37594;DHT22;23441;50.856;6.076;2022-09-09T08:14:12;17.30;99.90
37594;DHT22;23441;50.856;6.076;2022-09-09T08:16:41;17.30;99.90
37594;DHT22;23441;50.856;6.076;2022-09-09T08:19:09;17.30;99.90
37594;DHT22;23441;50.856;6.076;2022-09-09T08:21:37;17.50;99.90
37594;DHT22;23441;50.856;6.076;2022-09-09T08:24:07;17.80;99.90
37594;DHT22;23441;50.856;6.076;2022-09-09T08:26:42;17.90;99.90
37594;DHT22;23441;50.856;6.076;2022-09-09T08:29:11;18.00;99.90
37594;DHT22;23441;50.856;6.076;2022-09-09T08:31:40;18.20;99.90
37594;DHT22;23441;50.856;6.076;2022-09-09T08:34:07;18.30;99.90
37594;DHT22;23441;50.856;6.076;2022-09-09T08:36:36;18.20;99.90
37594;DHT22;23441;50.856;6.076;2022-09-09T08:39:05;18.10;99.90
37594;DHT22;23441;50.856;6.076;2022-09-09T08:51:18;17.80;99.90
37594;DHT22;23441;50.856;6.076;2022-09-09T08:53:49;17.80;99.90
37594;DHT22;23441;50.856;6.076;2022-09-09T08:56:20;17.80;99.90
37594;DHT22;23441;50.856;6.076;2022-09-09T08:58:52;18.00;99.90
37594;DHT22;23441;50.856;6.076;2022-09-09T09:04:38;17.90;99.90
37594;DHT22;23441;50.856;6.076;2022-09-09T09:12:52;18.20;99.90
37594;DHT22;23441;50.856;6.076;2022-09-09T09:15:22;18.20;99.90
37594;DHT22;23441;50.856;6.076;2022-09-09T09:17:49;18.20;99.90
37594;DHT22;23441;50.856;6.076;2022-09-09T09:20:17;18.30;99.90
37594;DHT22;23441;50.856;6.076;2022-09-09T09:22:51;18.60;99.90
37594;DHT22;23441;50.856;6.076;2022-09-09T09:25:24;18.90;99.90
37594;DHT22;23441;50.856;6.076;2022-09-09T09:28:17;18.70;99.90
37594;DHT22;23441;50.856;6.076;2022-09-09T09:30:53;18.90;99.90
37594;DHT22;23441;50.856;6.076;2022-09-09T09:35:54;19.10;99.90
37594;DHT22;23441;50.856;6.076;2022-09-09T09:38:23;19.30;99.90
37594;DHT22;23441;50.856;6.076;2022-09-09T09:40:56;19.50;99.90
37594;DHT22;23441;50.856;6.076;2022-09-09T09:43:28;19.70;99.90
37594;DHT22;23441;50.856;6.076;2022-09-09T09:45:55;19.50;99.90
37594;DHT22;23441;50.856;6.076;2022-09-09T09:48:24;19.40;99.90
37594;DHT22;23441;50.856;6.076;2022-09-09T09:50:52;19.10;99.90
37594;DHT22;23441;50.856;6.076;2022-09-09T09:56:05;18.80;99.90
37594;DHT22;23441;50.856;6.076;2022-09-09T10:04:02;18.70;99.90
37594;DHT22;23441;50.856;6.076;2022-09-09T10:06:38;18.80;99.90
37594;DHT22;23441;50.856;6.076;2022-09-09T10:09:30;18.80;99.90
37594;DHT22;23441;50.856;6.076;2022-09-09T10:12:14;18.70;99.90
37594;DHT22;23441;50.856;6.076;2022-09-09T10:23:36;18.20;99.90
37594;DHT22;23441;50.856;6.076;2022-09-09T10:29:38;18.50;99.90
37594;DHT22;23441;50.856;6.076;2022-09-09T10:33:00;18.80;99.90
37594;DHT22;23441;50.856;6.076;2022-09-09T10:35:48;19.30;99.90
37594;DHT22;23441;50.856;6.076;2022-09-09T10:47:08;19.60;99.90
37594;DHT22;23441;50.856;6.076;2022-09-09T10:56:14;18.90;99.90
37594;DHT22;23441;50.856;6.076;2022-09-09T10:59:05;19.00;99.90
37594;DHT22;23441;50.856;6.076;2022-09-09T11:04:58;19.00;99.90
37594;DHT22;23441;50.856;6.076;2022-09-09T11:07:55;19.20;99.90
37594;DHT22;23441;50.856;6.076;2022-09-09T11:13:01;19.50;99.90
37594;DHT22;23441;50.856;6.076;2022-09-09T11:15:43;19.90;99.90
37594;DHT22;23441;50.856;6.076;2022-09-09T11:18:18;20.20;99.90
37594;DHT22;23441;50.856;6.076;2022-09-09T11:20:48;20.20;99.90
37594;DHT22;23441;50.856;6.076;2022-09-09T11:23:24;20.20;99.90
37594;DHT22;23441;50.856;6.076;2022-09-09T11:25:59;20.10;99.90
37594;DHT22;23441;50.856;6.076;2022-09-09T11:40:19;19.80;99.90
37594;DHT22;23441;50.856;6.076;2022-09-09T11:42:47;19.60;99.90
37594;DHT22;23441;50.856;6.076;2022-09-09T11:45:22;19.50;99.90
37594;DHT22;23441;50.856;6.076;2022-09-09T11:47:52;19.30;99.90
37594;DHT22;23441;50.856;6.076;2022-09-09T11:52:47;19.20;99.90
37594;DHT22;23441;50.856;6.076;2022-09-09T11:55:33;18.90;99.90
37594;DHT22;23441;50.856;6.076;2022-09-09T11:58:04;19.00;99.90
37594;DHT22;23441;50.856;6.076;2022-09-09T12:00:41;18.90;99.90
37594;DHT22;23441;50.856;6.076;2022-09-09T12:06:27;19.20;99.90
37594;DHT22;23441;50.856;6.076;2022-09-09T12:09:12;19.10;99.90
37594;DHT22;23441;50.856;6.076;2022-09-09T12:11:40;19.30;99.90
37594;DHT22;23441;50.856;6.076;2022-09-09T12:14:35;19.50;99.90
37594;DHT22;23441;50.856;6.076;2022-09-09T12:17:22;19.40;99.90
37594;DHT22;23441;50.856;6.076;2022-09-09T12:20:16;19.50;99.90
37594;DHT22;23441;50.856;6.076;2022-09-09T12:28:21;20.00;99.90
37594;DHT22;23441;50.856;6.076;2022-09-09T12:33:37;19.90;99.90
37594;DHT22;23441;50.856;6.076;2022-09-09T12:36:18;19.60;99.90
37594;DHT22;23441;50.856;6.076;2022-09-09T12:38:48;19.30;99.90
37594;DHT22;23441;50.856;6.076;2022-09-09T12:41:25;19.00;99.90
37594;DHT22;23441;50.856;6.076;2022-09-09T12:44:04;18.80;99.90
37594;DHT22;23441;50.856;6.076;2022-09-09T12:46:43;18.60;99.90
37594;DHT22;23441;50.856;6.076;2022-09-09T12:52:04;18.10;99.90
37594;DHT22;23441;50.856;6.076;2022-09-09T12:54:36;18.60;99.90
37594;DHT22;23441;50.856;6.076;2022-09-09T12:57:03;19.10;99.90
37594;DHT22;23441;50.856;6.076;2022-09-09T12:59:39;19.30;99.90
37594;DHT22;23441;50.856;6.076;2022-09-09T13:02:22;19.40;99.90
37594;DHT22;23441;50.856;6.076;2022-09-09T13:04:51;19.70;99.90
37594;DHT22;23441;50.856;6.076;2022-09-09T13:07:19;20.00;99.90
37594;DHT22;23441;50.856;6.076;2022-09-09T13:09:48;20.40;99.90
37594;DHT22;23441;50.856;6.076;2022-09-09T13:12:17;20.40;99.90
37594;DHT22;23441;50.856;6.076;2022-09-09T13:14:47;20.80;99.90
37594;DHT22;23441;50.856;6.076;2022-09-09T13:17:26;21.00;99.90
37594;DHT22;23441;50.856;6.076;2022-09-09T13:19:56;20.80;99.90
37594;DHT22;23441;50.856;6.076;2022-09-09T13:22:35;20.30;99.90
37594;DHT22;23441;50.856;6.076;2022-09-09T13:27:39;20.20;99.90
37594;DHT22;23441;50.856;6.076;2022-09-09T13:35:50;20.30;99.90
37594;DHT22;23441;50.856;6.076;2022-09-09T13:38:17;20.40;99.90
37594;DHT22;23441;50.856;6.076;2022-09-09T13:41:07;20.70;99.90
37594;DHT22;23441;50.856;6.076;2022-09-09T13:43:45;21.10;99.90
37594;DHT22;23441;50.856;6.076;2022-09-09T13:46:38;21.40;99.90
37594;DHT22;23441;50.856;6.076;2022-09-09T13:51:36;21.40;99.90
37594;DHT22;23441;50.856;6.076;2022-09-09T13:54:09;21.60;99.90
37594;DHT22;23441;50.856;6.076;2022-09-09T13:56:37;21.30;99.90
37594;DHT22;23441;50.856;6.076;2022-09-09T13:59:06;21.50;99.90
37594;DHT22;23441;50.856;6.076;2022-09-09T14:01:35;21.60;99.90
37594;DHT22;23441;50.856;6.076;2022-09-09T14:04:01;21.20;99.90
37594;DHT22;23441;50.856;6.076;2022-09-09T14:06:27;21.10;99.90
37594;DHT22;23441;50.856;6.076;2022-09-09T14:08:54;21.10;99.90
37594;DHT22;23441;50.856;6.076;2022-09-09T14:11:21;21.40;99.90
37594;DHT22;23441;50.856;6.076;2022-09-09T14:13:49;21.30;99.90
37594;DHT22;23441;50.856;6.076;2022-09-09T14:16:19;21.10;99.90
37594;DHT22;23441;50.856;6.076;2022-09-09T14:18:46;21.10;99.90
37594;DHT22;23441;50.856;6.076;2022-09-09T14:21:12;20.70;99.90
37594;DHT22;23441;50.856;6.076;2022-09-09T14:23:38;20.70;99.90
37594;DHT22;23441;50.856;6.076;2022-09-09T14:26:05;20.60;99.90
37594;DHT22;23441;50.856;6.076;2022-09-09T14:28:31;20.70;99.90
37594;DHT22;23441;50.856;6.076;2022-09-09T14:31:03;20.60;99.90
37594;DHT22;23441;50.856;6.076;2022-09-09T14:33:30;20.50;99.90
37594;DHT22;23441;50.856;6.076;2022-09-09T14:36:00;20.40;99.90
37594;DHT22;23441;50.856;6.076;2022-09-09T14:38:32;20.30;99.90
37594;DHT22;23441;50.856;6.076;2022-09-09T14:41:00;20.00;99.90
37594;DHT22;23441;50.856;6.076;2022-09-09T14:43:29;20.00;99.90
37594;DHT22;23441;50.856;6.076;2022-09-09T14:45:55;19.80;99.90
37594;DHT22;23441;50.856;6.076;2022-09-09T14:48:21;19.70;99.90
37594;DHT22;23441;50.856;6.076;2022-09-09T14:50:47;19.60;99.90
37594;DHT22;23441;50.856;6.076;2022-09-09T14:53:16;19.50;99.90
37594;DHT22;23441;50.856;6.076;2022-09-09T14:55:42;19.40;99.90
37594;DHT22;23441;50.856;6.076;2022-09-09T14:58:08;19.50;99.90
37594;DHT22;23441;50.856;6.076;2022-09-09T15:00:34;19.70;99.90
37594;DHT22;23441;50.856;6.076;2022-09-09T15:03:00;19.80;99.90
37594;DHT22;23441;50.856;6.076;2022-09-09T15:05:26;19.60;99.90
37594;DHT22;23441;50.856;6.076;2022-09-09T15:07:53;19.30;99.90
37594;DHT22;23441;50.856;6.076;2022-09-09T15:10:19;19.10;99.90
37594;DHT22;23441;50.856;6.076;2022-09-09T15:12:45;18.80;99.90
37594;DHT22;23441;50.856;6.076;2022-09-09T15:15:11;18.70;99.90
37594;DHT22;23441;50.856;6.076;2022-09-09T15:17:38;18.50;99.90
37594;DHT22;23441;50.856;6.076;2022-09-09T15:20:04;18.40;99.90
37594;DHT22;23441;50.856;6.076;2022-09-09T15:22:33;18.70;99.90
37594;DHT22;23441;50.856;6.076;2022-09-09T15:25:01;18.80;99.90
37594;DHT22;23441;50.856;6.076;2022-09-09T15:27:28;18.80;99.90
37594;DHT22;23441;50.856;6.076;2022-09-09T15:29:56;19.20;99.90
37594;DHT22;23441;50.856;6.076;2022-09-09T15:32:23;19.40;99.90
37594;DHT22;23441;50.856;6.076;2022-09-09T15:34:49;19.40;99.90
37594;DHT22;23441;50.856;6.076;2022-09-09T15:37:16;19.50;99.90
37594;DHT22;23441;50.856;6.076;2022-09-09T15:39:42;19.50;99.90
37594;DHT22;23441;50.856;6.076;2022-09-09T15:42:08;19.40;99.90
37594;DHT22;23441;50.856;6.076;2022-09-09T15:44:41;19.50;99.90
37594;DHT22;23441;50.856;6.076;2022-09-09T15:47:10;19.30;99.90
37594;DHT22;23441;50.856;6.076;2022-09-09T15:49:38;19.20;99.90
37594;DHT22;23441;50.856;6.076;2022-09-09T15:52:04;19.40;99.90
37594;DHT22;23441;50.856;6.076;2022-09-09T15:54:33;19.50;99.90
37594;DHT22;23441;50.856;6.076;2022-09-09T15:57:02;19.40;99.90
37594;DHT22;23441;50.856;6.076;2022-09-09T15:59:31;19.30;99.90
37594;DHT22;23441;50.856;6.076;2022-09-09T16:01:59;19.20;99.90
37594;DHT22;23441;50.856;6.076;2022-09-09T16:04:26;19.20;99.90
37594;DHT22;23441;50.856;6.076;2022-09-09T16:06:54;19.00;99.90
37594;DHT22;23441;50.856;6.076;2022-09-09T16:09:24;18.80;99.90
37594;DHT22;23441;50.856;6.076;2022-09-09T16:11:52;18.70;99.90
37594;DHT22;23441;50.856;6.076;2022-09-09T16:14:19;18.70;99.90
37594;DHT22;23441;50.856;6.076;2022-09-09T16:16:45;18.60;99.90
37594;DHT22;23441;50.856;6.076;2022-09-09T16:19:12;18.60;99.90
37594;DHT22;23441;50.856;6.076;2022-09-09T16:21:49;18.60;99.90
37594;DHT22;23441;50.856;6.076;2022-09-09T16:24:17;18.30;99.90
37594;DHT22;23441;50.856;6.076;2022-09-09T16:26:50;18.20;99.90
37594;DHT22;23441;50.856;6.076;2022-09-09T16:29:18;18.10;99.90
37594;DHT22;23441;50.856;6.076;2022-09-09T16:31:45;17.90;99.90
37594;DHT22;23441;50.856;6.076;2022-09-09T16:34:13;17.80;99.90
37594;DHT22;23441;50.856;6.076;2022-09-09T16:36:41;17.60;99.90
37594;DHT22;23441;50.856;6.076;2022-09-09T16:39:10;17.60;99.90
37594;DHT22;23441;50.856;6.076;2022-09-09T16:41:38;17.60;99.90
37594;DHT22;23441;50.856;6.076;2022-09-09T16:44:09;17.50;99.90
37594;DHT22;23441;50.856;6.076;2022-09-09T16:46:40;17.50;99.90
37594;DHT22;23441;50.856;6.076;2022-09-09T16:49:09;17.40;99.90
37594;DHT22;23441;50.856;6.076;2022-09-09T16:51:43;17.40;99.90
37594;DHT22;23441;50.856;6.076;2022-09-09T16:54:12;17.30;99.90
37594;DHT22;23441;50.856;6.076;2022-09-09T16:56:41;17.20;99.90
37594;DHT22;23441;50.856;6.076;2022-09-09T16:59:10;17.20;99.90
37594;DHT22;23441;50.856;6.076;2022-09-09T17:01:39;17.00;99.90
37594;DHT22;23441;50.856;6.076;2022-09-09T17:04:12;17.10;99.90
37594;DHT22;23441;50.856;6.076;2022-09-09T17:06:44;17.00;99.90
37594;DHT22;23441;50.856;6.076;2022-09-09T17:09:11;17.00;99.90
37594;DHT22;23441;50.856;6.076;2022-09-09T17:11:38;17.00;99.90
37594;DHT22;23441;50.856;6.076;2022-09-09T17:14:06;17.00;99.90
37594;DHT22;23441;50.856;6.076;2022-09-09T17:16:35;16.90;99.90
37594;DHT22;23441;50.856;6.076;2022-09-09T17:19:02;16.80;99.90
37594;DHT22;23441;50.856;6.076;2022-09-09T17:21:30;16.80;99.90
37594;DHT22;23441;50.856;6.076;2022-09-09T17:23:57;16.80;99.90
37594;DHT22;23441;50.856;6.076;2022-09-09T17:26:26;16.70;99.90
37594;DHT22;23441;50.856;6.076;2022-09-09T17:28:55;16.70;99.90
37594;DHT22;23441;50.856;6.076;2022-09-09T17:31:23;16.70;99.90
37594;DHT22;23441;50.856;6.076;2022-09-09T17:33:51;16.60;99.90
37594;DHT22;23441;50.856;6.076;2022-09-09T17:36:34;16.60;99.90
37594;DHT22;23441;50.856;6.076;2022-09-09T17:39:03;16.50;99.90
37594;DHT22;23441;50.856;6.076;2022-09-09T17:41:39;16.40;99.90
37594;DHT22;23441;50.856;6.076;2022-09-09T17:44:06;16.20;99.90
37594;DHT22;23441;50.856;6.076;2022-09-09T17:46:38;16.20;99.90
37594;DHT22;23441;50.856;6.076;2022-09-09T17:49:14;16.10;99.90
37594;DHT22;23441;50.856;6.076;2022-09-09T17:51:45;16.00;99.90
37594;DHT22;23441;50.856;6.076;2022-09-09T17:54:16;16.00;99.90
37594;DHT22;23441;50.856;6.076;2022-09-09T17:56:44;15.80;99.90
37594;DHT22;23441;50.856;6.076;2022-09-09T17:59:11;15.80;99.90
37594;DHT22;23441;50.856;6.076;2022-09-09T18:01:41;15.80;99.90
37594;DHT22;23441;50.856;6.076;2022-09-09T18:04:09;15.70;99.90
37594;DHT22;23441;50.856;6.076;2022-09-09T18:06:38;15.70;99.90
37594;DHT22;23441;50.856;6.076;2022-09-09T18:09:08;15.60;99.90
37594;DHT22;23441;50.856;6.076;2022-09-09T18:11:38;15.60;99.90
37594;DHT22;23441;50.856;6.076;2022-09-09T18:14:15;15.60;99.90
37594;DHT22;23441;50.856;6.076;2022-09-09T18:16:42;15.60;99.90
37594;DHT22;23441;50.856;6.076;2022-09-09T18:19:10;15.60;99.90
37594;DHT22;23441;50.856;6.076;2022-09-09T18:21:39;15.60;99.90
37594;DHT22;23441;50.856;6.076;2022-09-09T18:24:07;15.60;99.90
37594;DHT22;23441;50.856;6.076;2022-09-09T18:26:34;15.60;99.90
37594;DHT22;23441;50.856;6.076;2022-09-09T18:29:05;15.60;99.90